Time;durP1;ratioP1;P1;durP2;ratioP2;P2;SDS_P1;SDS_P2;PMS_P1;PMS_P2;Temp;Humidity;BMP_temperature;BMP_pressure;BME280_temperature;BME280_humidity;BME280_pressure;Samples;Min_cycle;Max_cycle;Signal;HPM_P1;HPM_P2
2021/08/20 00:01:02;;;;;;;2.08;1.90;;;;;;;;;;5034525;28;20030;-77
2021/08/20 00:03:28;;;;;;;2.65;2.03;;;;;;;;;;5034558;28;20029;-77
2021/08/20 00:05:54;;;;;;;1.73;1.63;;;;;;;;;;5035478;28;20083;-78
2021/08/20 00:08:20;;;;;;;2.08;1.88;;;;;;;;;;5045536;28;20132;-80
2021/08/20 00:10:48;;;;;;;1.80;1.70;;;;;;;;;;5059375;28;20547;-78
2021/08/20 00:13:14;;;;;;;1.55;1.45;;;;;;;;;;5033387;28;20140;-78
2021/08/20 00:15:40;;;;;;;1.50;1.40;;;;;;;;;;5034338;28;20025;-77
2021/08/20 00:18:06;;;;;;;1.85;1.75;;;;;;;;;;5033919;28;20033;-78
2021/08/20 00:20:32;;;;;;;2.83;2.38;;;;;;;;;;5033053;28;20047;-79
2021/08/20 00:22:58;;;;;;;2.35;1.90;;;;;;;;;;5033569;28;20068;-79
2021/08/20 00:25:24;;;;;;;2.03;1.83;;;;;;;;;;5033438;28;20033;-79
2021/08/20 00:27:50;;;;;;;2.25;1.83;;;;;;;;;;5035235;28;20049;-80
2021/08/20 00:30:16;;;;;;;1.48;1.38;;;;;;;;;;5033889;28;20100;-79
2021/08/20 00:32:42;;;;;;;3.05;2.20;;;;;;;;;;5034395;28;20075;-79
2021/08/20 00:35:09;;;;;;;2.25;1.98;;;;;;;;;;5034572;28;20025;-79
2021/08/20 00:37:35;;;;;;;2.75;1.52;;;;;;;;;;5033842;28;20114;-79
2021/08/20 00:40:03;;;;;;;1.67;1.58;;;;;;;;;;5048976;28;20152;-79
2021/08/20 00:42:29;;;;;;;1.60;1.50;;;;;;;;;;5034011;28;20022;-79
2021/08/20 00:44:55;;;;;;;2.15;1.50;;;;;;;;;;5034309;28;20072;-78
2021/08/20 00:47:21;;;;;;;1.65;1.55;;;;;;;;;;5034472;28;20029;-80
2021/08/20 00:49:47;;;;;;;2.38;2.08;;;;;;;;;;5033641;28;20017;-80
2021/08/20 00:52:13;;;;;;;2.85;2.50;;;;;;;;;;5033828;28;20091;-79
2021/08/20 00:54:40;;;;;;;1.90;1.80;;;;;;;;;;5033739;28;20484;-79
2021/08/20 00:57:06;;;;;;;2.95;2.67;;;;;;;;;;5048779;28;20548;-79
2021/08/20 00:59:33;;;;;;;1.48;1.38;;;;;;;;;;5033776;28;20049;-79
2021/08/20 01:02:00;;;;;;;1.40;1.30;;;;;;;;;;5033684;28;20069;-78
2021/08/20 01:04:26;;;;;;;3.72;2.03;;;;;;;;;;5033450;28;20389;-78
2021/08/20 01:06:55;;;;;;;2.67;2.35;;;;;;;;;;5033447;28;20045;-78
2021/08/20 01:09:22;;;;;;;2.80;2.40;;;;;;;;;;5033847;28;20503;-78
2021/08/20 01:11:48;;;;;;;2.92;2.33;;;;;;;;;;5033890;28;20539;-77
2021/08/20 01:14:16;;;;;;;3.03;1.92;;;;;;;;;;5033443;28;20343;-78
2021/08/20 01:16:42;;;;;;;2.70;2.00;;;;;;;;;;5033563;28;20029;-77
2021/08/20 01:19:09;;;;;;;2.45;1.95;;;;;;;;;;5033697;28;20117;-78
2021/08/20 01:21:35;;;;;;;2.00;1.90;;;;;;;;;;5032986;28;20040;-78
2021/08/20 01:24:03;;;;;;;2.38;2.17;;;;;;;;;;5033450;28;20026;-78
2021/08/20 01:26:29;;;;;;;2.05;1.85;;;;;;;;;;5033336;28;20018;-78
2021/08/20 01:28:56;;;;;;;2.33;1.90;;;;;;;;;;5048898;28;20029;-78
2021/08/20 01:31:22;;;;;;;2.53;2.25;;;;;;;;;;5048877;28;20060;-79
2021/08/20 01:33:48;;;;;;;2.10;1.90;;;;;;;;;;5033110;28;20439;-77
2021/08/20 01:36:14;;;;;;;1.85;1.73;;;;;;;;;;5032962;28;20481;-79
2021/08/20 01:39:07;;;;;;;2.00;1.80;;;;;;;;;;5032530;28;20334;-79
2021/08/20 01:41:33;;;;;;;;;;;;;;;;;;5030723;28;20390;-78
2021/08/20 01:43:59;;;;;;;2.10;1.77;;;;;;;;;;5032455;28;19913;-79
2021/08/20 01:46:26;;;;;;;2.30;2.00;;;;;;;;;;5032349;28;20029;-78
2021/08/20 01:48:53;;;;;;;1.77;1.67;;;;;;;;;;5032384;28;20390;-80
2021/08/20 01:51:20;;;;;;;2.08;1.98;;;;;;;;;;5032437;28;20037;-78
2021/08/20 01:53:47;;;;;;;1.65;1.55;;;;;;;;;;5032196;28;20030;-77
2021/08/20 01:56:23;;;;;;;1.90;1.80;;;;;;;;;;5032784;28;20025;-78
2021/08/20 01:58:49;;;;;;;1.83;1.73;;;;;;;;;;5047767;28;20026;-79
2021/08/20 02:01:15;;;;;;;1.83;1.73;;;;;;;;;;5033851;28;20402;-79
2021/08/20 02:03:42;;;;;;;1.45;1.35;;;;;;;;;;5051292;28;20032;-78
2021/08/20 02:06:08;;;;;;;1.95;1.67;;;;;;;;;;5035873;28;20116;-78
2021/08/20 02:08:34;;;;;;;1.58;1.48;;;;;;;;;;5035652;28;20466;-78
2021/08/20 02:11:00;;;;;;;1.70;1.60;;;;;;;;;;5035730;28;20037;-79
2021/08/20 02:13:26;;;;;;;1.90;1.80;;;;;;;;;;5035666;28;20079;-79
2021/08/20 02:15:52;;;;;;;1.67;1.40;;;;;;;;;;5050781;28;20482;-78
2021/08/20 02:18:19;;;;;;;1.48;1.38;;;;;;;;;;5035430;28;20109;-79
2021/08/20 02:20:45;;;;;;;1.70;1.60;;;;;;;;;;5050463;28;20046;-80
2021/08/20 02:23:12;;;;;;;1.45;1.35;;;;;;;;;;5035650;28;20104;-79
2021/08/20 02:25:38;;;;;;;1.42;1.33;;;;;;;;;;5035242;28;20080;-78
2021/08/20 02:28:04;;;;;;;1.45;1.17;;;;;;;;;;5035291;28;20529;-78
2021/08/20 02:30:30;;;;;;;1.63;1.48;;;;;;;;;;5035147;28;20056;-77
2021/08/20 02:32:56;;;;;;;1.35;1.35;;;;;;;;;;5035488;28;20033;-78
2021/08/20 02:35:26;;;;;;;1.30;1.27;;;;;;;;;;5035156;28;20156;-78
2021/08/20 02:37:53;;;;;;;1.42;1.33;;;;;;;;;;5035274;28;20473;-78
2021/08/20 02:40:19;;;;;;;1.45;1.35;;;;;;;;;;5035266;28;20453;-77
2021/08/20 02:42:45;;;;;;;1.40;1.30;;;;;;;;;;5034943;28;20284;-78
2021/08/20 02:45:11;;;;;;;1.40;1.30;;;;;;;;;;5034780;28;20017;-77
2021/08/20 02:47:37;;;;;;;1.55;1.30;;;;;;;;;;5034978;28;20403;-77
2021/08/20 02:50:04;;;;;;;3.53;2.03;;;;;;;;;;5034711;28;20104;-79
2021/08/20 02:52:30;;;;;;;2.15;2.03;;;;;;;;;;5034932;28;20033;-79
2021/08/20 02:54:56;;;;;;;2.00;1.80;;;;;;;;;;5034610;28;20474;-78
2021/08/20 02:57:23;;;;;;;1.98;1.88;;;;;;;;;;5035248;28;20157;-80
2021/08/20 02:59:50;;;;;;;1.63;1.50;;;;;;;;;;5035201;28;20060;-79
2021/08/20 03:02:16;;;;;;;1.83;1.70;;;;;;;;;;5034496;28;20029;-78
2021/08/20 03:04:42;;;;;;;2.13;1.65;;;;;;;;;;5035446;28;20433;-78
2021/08/20 03:07:09;;;;;;;3.08;1.98;;;;;;;;;;5035535;28;20021;-79
2021/08/20 03:09:35;;;;;;;2.33;2.13;;;;;;;;;;5035616;28;20033;-78
2021/08/20 03:12:01;;;;;;;2.13;1.92;;;;;;;;;;5035260;28;20029;-79
2021/08/20 03:14:28;;;;;;;2.60;2.17;;;;;;;;;;5036093;28;20025;-78
2021/08/20 03:16:54;;;;;;;2.22;2.13;;;;;;;;;;5038000;28;20036;-78
2021/08/20 03:19:20;;;;;;;2.28;2.08;;;;;;;;;;5036250;28;20029;-77
2021/08/20 03:21:46;;;;;;;2.45;2.17;;;;;;;;;;5035208;28;20076;-78
2021/08/20 03:24:12;;;;;;;2.10;1.95;;;;;;;;;;5036288;28;20025;-78
2021/08/20 03:26:38;;;;;;;2.05;1.90;;;;;;;;;;5051801;28;20030;-78
2021/08/20 03:29:04;;;;;;;2.50;2.30;;;;;;;;;;5034510;28;20061;-78
2021/08/20 03:31:30;;;;;;;2.28;2.08;;;;;;;;;;5050053;28;20152;-78
2021/08/20 03:33:56;;;;;;;2.13;1.98;;;;;;;;;;5051603;28;20029;-79
2021/08/20 03:36:23;;;;;;;2.72;2.30;;;;;;;;;;5034100;28;20029;-79
2021/08/20 03:38:50;;;;;;;2.97;2.22;;;;;;;;;;5034077;28;20025;-79
2021/08/20 03:41:17;;;;;;;2.33;2.13;;;;;;;;;;5033844;28;20026;-78
2021/08/20 03:43:43;;;;;;;2.00;1.90;;;;;;;;;;5033580;28;20120;-77
2021/08/20 03:46:09;;;;;;;2.20;2.00;;;;;;;;;;5033956;28;20033;-78
2021/08/20 03:48:35;;;;;;;2.25;2.05;;;;;;;;;;5033631;28;20147;-79
2021/08/20 03:51:01;;;;;;;2.00;1.80;;;;;;;;;;5049086;28;20223;-78
2021/08/20 03:53:27;;;;;;;1.13;1.13;;;;;;;;;;5033853;28;20060;-79
2021/08/20 03:55:53;;;;;;;1.73;1.60;;;;;;;;;;5033982;28;20088;-78
2021/08/20 03:58:19;;;;;;;2.10;1.90;;;;;;;;;;5033783;28;20455;-79
2021/08/20 04:00:51;;;;;;;1.48;1.38;;;;;;;;;;5049738;28;20506;-81
2021/08/20 04:03:17;;;;;;;1.50;1.40;;;;;;;;;;5049694;28;20025;-78
2021/08/20 04:05:43;;;;;;;2.13;1.98;;;;;;;;;;5033605;28;20060;-79
2021/08/20 04:08:09;;;;;;;2.10;1.77;;;;;;;;;;5035277;28;20029;-80
2021/08/20 04:10:36;;;;;;;2.00;1.83;;;;;;;;;;5034205;28;20029;-80
2021/08/20 04:13:02;;;;;;;2.03;1.83;;;;;;;;;;5033558;28;20029;-80
2021/08/20 04:15:28;;;;;;;3.40;2.30;;;;;;;;;;5033302;28;20030;-79
2021/08/20 04:17:54;;;;;;;2.30;2.10;;;;;;;;;;5033293;28;20029;-78
2021/08/20 04:20:20;;;;;;;2.70;2.50;;;;;;;;;;5033048;28;20494;-78
2021/08/20 04:22:46;;;;;;;2.30;2.10;;;;;;;;;;5033103;28;20029;-79
2021/08/20 04:25:12;;;;;;;2.55;2.17;;;;;;;;;;5032592;28;20018;-79
2021/08/20 04:27:38;;;;;;;2.95;2.65;;;;;;;;;;5033218;28;20021;-80
2021/08/20 04:30:04;;;;;;;4.65;2.17;;;;;;;;;;5048850;28;20366;-79
2021/08/20 04:32:30;;;;;;;3.72;2.53;;;;;;;;;;5033382;28;20525;-80
2021/08/20 04:34:56;;;;;;;2.38;2.17;;;;;;;;;;5033613;28;20048;-78
2021/08/20 04:37:23;;;;;;;2.40;2.20;;;;;;;;;;5033617;28;20033;-79
2021/08/20 04:39:50;;;;;;;2.35;2.15;;;;;;;;;;5036235;28;20060;-79
2021/08/20 04:42:16;;;;;;;2.38;1.92;;;;;;;;;;5033375;28;20022;-79
2021/08/20 04:44:42;;;;;;;2.30;2.10;;;;;;;;;;5032886;28;20504;-78
2021/08/20 04:47:09;;;;;;;2.28;1.80;;;;;;;;;;5032550;28;20053;-78
2021/08/20 04:49:35;;;;;;;1.83;1.73;;;;;;;;;;5032056;28;20508;-79
2021/08/20 04:52:01;;;;;;;2.60;1.60;;;;;;;;;;5074907;22;20048;-80
2021/08/20 04:54:29;;;;;;;2.40;2.10;;;;;;;;;;5058590;28;20025;-81
2021/08/20 04:56:55;;;;;;;1.70;1.60;;;;;;;;;;5047468;28;20041;-82
2021/08/20 04:59:21;;;;;;;2.40;2.20;;;;;;;;;;5043841;28;20033;-81
2021/08/20 05:01:47;;;;;;;1.83;1.73;;;;;;;;;;5027895;28;20026;-80
2021/08/20 05:04:14;;;;;;;1.70;1.60;;;;;;;;;;5028834;28;20030;-82
2021/08/20 05:06:40;;;;;;;1.65;1.55;;;;;;;;;;5029397;28;20028;-81
2021/08/20 05:09:07;;;;;;;2.00;1.80;;;;;;;;;;5027429;28;20026;-80
2021/08/20 05:11:35;;;;;;;1.90;1.75;;;;;;;;;;5030142;28;20022;-80
2021/08/20 05:14:01;;;;;;;1.50;1.40;;;;;;;;;;5032538;28;20026;-80
2021/08/20 05:16:27;;;;;;;2.25;2.05;;;;;;;;;;5032444;28;20041;-82
2021/08/20 05:18:55;;;;;;;2.78;2.40;;;;;;;;;;5052428;28;20085;-82
2021/08/20 05:21:22;;;;;;;4.15;2.60;;;;;;;;;;5050541;28;20021;-81
2021/08/20 05:23:48;;;;;;;2.63;2.38;;;;;;;;;;5051824;28;20040;-81
2021/08/20 05:26:14;;;;;;;3.03;2.38;;;;;;;;;;5049113;28;20025;-82
2021/08/20 05:28:40;;;;;;;2.63;2.00;;;;;;;;;;5049585;28;20018;-83
2021/08/20 05:31:06;;;;;;;2.30;2.10;;;;;;;;;;5054933;28;20068;-82
2021/08/20 05:33:33;;;;;;;3.25;2.72;;;;;;;;;;5053553;28;20030;-80
2021/08/20 05:35:59;;;;;;;3.70;3.00;;;;;;;;;;5054192;28;20121;-81
2021/08/20 05:38:25;;;;;;;3.97;3.53;;;;;;;;;;5041454;28;20037;-82
2021/08/20 05:40:51;;;;;;;5.53;3.28;;;;;;;;;;5031457;28;20418;-82
2021/08/20 05:43:17;;;;;;;3.17;2.88;;;;;;;;;;5032055;28;20032;-81
2021/08/20 05:45:43;;;;;;;3.50;3.00;;;;;;;;;;5031604;28;20037;-81
2021/08/20 05:48:10;;;;;;;6.78;3.92;;;;;;;;;;5030660;28;20092;-82
2021/08/20 05:50:36;;;;;;;5.68;3.85;;;;;;;;;;5051563;28;20398;-82
2021/08/20 05:53:02;;;;;;;7.95;3.17;;;;;;;;;;5051609;28;20048;-81
2021/08/20 05:55:31;;;;;;;5.40;3.50;;;;;;;;;;5053145;28;20025;-81
2021/08/20 05:57:57;;;;;;;4.90;3.30;;;;;;;;;;5050646;28;20010;-83
2021/08/20 06:00:23;;;;;;;3.42;2.92;;;;;;;;;;5036993;28;20388;-82
2021/08/20 06:02:50;;;;;;;4.25;3.80;;;;;;;;;;5037744;28;20028;-83
2021/08/20 06:05:16;;;;;;;2.60;2.40;;;;;;;;;;5032745;28;20022;-82
2021/08/20 06:07:42;;;;;;;2.95;2.65;;;;;;;;;;5044244;28;20021;-81
2021/08/20 06:10:08;;;;;;;2.40;2.20;;;;;;;;;;5049420;28;20076;-82
2021/08/20 06:12:35;;;;;;;3.25;2.33;;;;;;;;;;5051779;28;20021;-82
2021/08/20 06:15:01;;;;;;;3.50;2.97;;;;;;;;;;5050726;28;20032;-83
2021/08/20 06:17:27;;;;;;;3.55;2.83;;;;;;;;;;5043481;28;20029;-81
2021/08/20 06:19:53;;;;;;;3.13;2.67;;;;;;;;;;5031736;28;20034;-82
2021/08/20 06:22:19;;;;;;;3.17;2.88;;;;;;;;;;5029548;28;20156;-81
2021/08/20 06:24:45;;;;;;;3.55;3.10;;;;;;;;;;5031965;28;20026;-81
2021/08/20 06:27:11;;;;;;;3.13;2.50;;;;;;;;;;5031630;28;20037;-81
2021/08/20 06:29:37;;;;;;;4.28;2.90;;;;;;;;;;5031038;28;20033;-82
2021/08/20 06:32:04;;;;;;;4.40;2.90;;;;;;;;;;5031864;28;20022;-83
2021/08/20 06:34:32;;;;;;;4.93;3.60;;;;;;;;;;5032208;28;20459;-83
2021/08/20 06:36:58;;;;;;;5.80;3.90;;;;;;;;;;5031579;28;20026;-83
2021/08/20 06:39:27;;;;;;;4.35;3.75;;;;;;;;;;5031660;28;20060;-83
2021/08/20 06:41:53;;;;;;;3.78;3.15;;;;;;;;;;5030444;28;20053;-82
2021/08/20 06:44:19;;;;;;;2.85;2.65;;;;;;;;;;5032578;28;20022;-83
2021/08/20 06:46:45;;;;;;;3.78;2.90;;;;;;;;;;5030562;28;20171;-82
2021/08/20 06:49:11;;;;;;;3.88;2.38;;;;;;;;;;5038286;28;20034;-83
2021/08/20 06:51:37;;;;;;;3.53;3.22;;;;;;;;;;5030572;28;20029;-81
2021/08/20 06:54:03;;;;;;;2.40;2.20;;;;;;;;;;5030786;28;20041;-82
2021/08/20 06:56:30;;;;;;;2.90;2.50;;;;;;;;;;5032455;28;20022;-81
2021/08/20 06:58:57;;;;;;;5.32;3.40;;;;;;;;;;5038353;28;20034;-83
2021/08/20 07:01:24;;;;;;;3.22;2.92;;;;;;;;;;5050908;28;20088;-82
2021/08/20 07:03:50;;;;;;;3.17;2.58;;;;;;;;;;5052079;28;20051;-81
2021/08/20 07:06:20;;;;;;;2.60;2.40;;;;;;;;;;5049834;28;20025;-82
2021/08/20 07:08:47;;;;;;;3.75;3.28;;;;;;;;;;5051641;28;20060;-82
2021/08/20 07:11:13;;;;;;;3.17;2.85;;;;;;;;;;5051458;28;20029;-82
2021/08/20 07:13:39;;;;;;;3.03;2.72;;;;;;;;;;5054426;28;20082;-83
2021/08/20 07:16:06;;;;;;;3.03;2.80;;;;;;;;;;5056381;28;20036;-82
2021/08/20 07:18:34;;;;;;;3.10;2.80;;;;;;;;;;5056188;28;20080;-83
2021/08/20 07:21:00;;;;;;;2.75;2.47;;;;;;;;;;5035553;28;20068;-81
2021/08/20 07:23:26;;;;;;;2.58;2.38;;;;;;;;;;5015656;28;20013;-81
2021/08/20 07:25:52;;;;;;;2.35;2.20;;;;;;;;;;5033393;28;20088;-82
2021/08/20 07:28:18;;;;;;;2.28;2.08;;;;;;;;;;5031627;28;20026;-82
2021/08/20 07:30:45;;;;;;;2.25;2.05;;;;;;;;;;5047187;28;20021;-84
2021/08/20 07:33:11;;;;;;;2.53;2.33;;;;;;;;;;5057251;28;20037;-83
2021/08/20 07:35:37;;;;;;;2.58;2.33;;;;;;;;;;5048019;28;20033;-81
2021/08/20 07:38:09;;;;;;;2.65;2.45;;;;;;;;;;5048152;28;20055;-81
2021/08/20 07:40:35;;;;;;;3.22;2.92;;;;;;;;;;5047738;28;20052;-82
2021/08/20 07:43:01;;;;;;;3.35;2.55;;;;;;;;;;5049140;28;20025;-81
2021/08/20 07:45:29;;;;;;;3.63;2.97;;;;;;;;;;5050020;28;20041;-82
2021/08/20 07:47:55;;;;;;;4.72;3.00;;;;;;;;;;5048941;28;20032;-82
2021/08/20 07:50:21;;;;;;;3.17;2.85;;;;;;;;;;5049528;28;20117;-81
2021/08/20 07:52:47;;;;;;;3.00;2.67;;;;;;;;;;5048196;28;20075;-81
2021/08/20 07:55:16;;;;;;;2.97;2.72;;;;;;;;;;5048499;28;20480;-81
2021/08/20 07:57:50;;;;;;;3.58;2.70;;;;;;;;;;5046280;28;20029;-81
2021/08/20 08:00:19;;;;;;;3.28;2.95;;;;;;;;;;5045671;28;20041;-83
2021/08/20 08:02:45;;;;;;;4.30;3.55;;;;;;;;;;5030437;28;20653;-82
2021/08/20 08:05:11;;;;;;;6.47;3.85;;;;;;;;;;5031270;28;20045;-82
2021/08/20 08:07:37;;;;;;;4.75;3.45;;;;;;;;;;5027972;28;20127;-82
2021/08/20 08:10:04;;;;;;;3.70;3.30;;;;;;;;;;5028970;28;20144;-82
2021/08/20 08:12:30;;;;;;;4.53;3.42;;;;;;;;;;5028415;28;20018;-83
2021/08/20 08:14:56;;;;;;;4.50;3.40;;;;;;;;;;5030136;28;20466;-82
2021/08/20 08:17:22;;;;;;;3.30;2.95;;;;;;;;;;5028697;28;20032;-82
2021/08/20 08:19:48;;;;;;;4.25;3.60;;;;;;;;;;5030575;28;20030;-82
2021/08/20 08:22:14;;;;;;;5.10;3.53;;;;;;;;;;5042223;28;20049;-82
2021/08/20 08:24:40;;;;;;;4.47;3.85;;;;;;;;;;5049443;28;20161;-82
2021/08/20 08:27:06;;;;;;;5.25;3.97;;;;;;;;;;5049652;28;20029;-82
2021/08/20 08:29:32;;;;;;;4.75;3.28;;;;;;;;;;5049243;28;20600;-82
2021/08/20 08:31:58;;;;;;;6.63;4.55;;;;;;;;;;5043304;28;20017;-82
2021/08/20 08:34:24;;;;;;;3.72;3.30;;;;;;;;;;5029603;28;20018;-83
2021/08/20 08:36:50;;;;;;;4.95;3.88;;;;;;;;;;5029653;28;20040;-81
2021/08/20 08:39:16;;;;;;;5.90;4.18;;;;;;;;;;5028967;28;20033;-83
2021/08/20 08:41:43;;;;;;;8.55;4.28;;;;;;;;;;5031793;28;20085;-83
2021/08/20 08:44:10;;;;;;;8.20;3.67;;;;;;;;;;5049492;28;20032;-83
2021/08/20 08:46:37;;;;;;;4.68;3.72;;;;;;;;;;5049529;28;20176;-82
2021/08/20 08:49:06;;;;;;;5.68;4.25;;;;;;;;;;5047410;28;20044;-83
2021/08/20 08:51:33;;;;;;;7.13;4.78;;;;;;;;;;5048746;28;20037;-82
2021/08/20 08:54:00;;;;;;;5.65;4.10;;;;;;;;;;5032269;28;20041;-81
2021/08/20 08:56:26;;;;;;;5.97;4.28;;;;;;;;;;5030196;28;20078;-82
2021/08/20 08:58:52;;;;;;;4.38;3.58;;;;;;;;;;5028131;28;20044;-82
2021/08/20 09:01:31;;;;;;;5.93;3.80;;;;;;;;;;5028987;28;20026;-83
2021/08/20 09:04:08;;;;;;;8.82;4.80;;;;;;;;;;5042121;28;20025;-83
2021/08/20 09:06:38;;;;;;;4.05;3.63;;;;;;;;;;5048984;28;20163;-82
2021/08/20 09:09:05;;;;;;;4.07;3.50;;;;;;;;;;5049624;28;20029;-81
2021/08/20 09:11:31;;;;;;;5.93;3.50;;;;;;;;;;5054198;28;20030;-82
2021/08/20 09:13:57;;;;;;;4.90;4.43;;;;;;;;;;5042224;28;20014;-83
2021/08/20 09:16:33;;;;;;;6.13;3.65;;;;;;;;;;5032399;28;20045;-82
2021/08/20 09:19:08;;;;;;;6.30;4.32;;;;;;;;;;5032235;28;20041;-82
2021/08/20 09:21:34;;;;;;;5.18;4.47;;;;;;;;;;5033574;28;20173;-84
2021/08/20 09:24:00;;;;;;;4.13;3.17;;;;;;;;;;5041193;28;20053;-82
2021/08/20 09:26:27;;;;;;;5.88;3.28;;;;;;;;;;5050553;28;20113;-82
2021/08/20 09:28:53;;;;;;;5.15;3.80;;;;;;;;;;5050421;28;20176;-82
2021/08/20 09:31:22;;;;;;;4.45;3.63;;;;;;;;;;5050138;28;20030;-83
2021/08/20 09:33:51;;;;;;;3.60;3.25;;;;;;;;;;5047252;28;20041;-81
2021/08/20 09:36:22;;;;;;;4.78;4.00;;;;;;;;;;5048693;28;20021;-82
2021/08/20 09:38:52;;;;;;;4.57;3.63;;;;;;;;;;5049324;28;20044;-83
2021/08/20 09:41:46;;;;;;;4.95;3.45;;;;;;;;;;5049446;28;20088;-83
2021/08/20 09:44:19;;;;;;;4.68;3.35;;;;;;;;;;5045819;28;20033;-82
2021/08/20 09:46:46;;;;;;;6.32;3.70;;;;;;;;;;5049679;28;20073;-83
2021/08/20 09:49:16;;;;;;;4.13;2.90;;;;;;;;;;5048734;28;20044;-82
2021/08/20 09:51:42;;;;;;;3.70;3.28;;;;;;;;;;5048950;28;20064;-82
2021/08/20 09:54:18;;;;;;;3.38;3.08;;;;;;;;;;5050027;28;20029;-82
2021/08/20 09:56:45;;;;;;;5.15;2.75;;;;;;;;;;5029544;28;20102;-82
2021/08/20 09:59:14;;;;;;;4.72;2.88;;;;;;;;;;5027214;28;20037;-82
2021/08/20 10:01:42;;;;;;;3.30;3.00;;;;;;;;;;5029511;28;20026;-83
2021/08/20 10:04:14;;;;;;;2.70;2.40;;;;;;;;;;5028306;28;20056;-83
2021/08/20 10:06:44;;;;;;;2.33;2.13;;;;;;;;;;5029695;28;20037;-82
2021/08/20 10:09:13;;;;;;;2.58;2.38;;;;;;;;;;5029690;28;20029;-83
2021/08/20 10:11:42;;;;;;;2.28;2.08;;;;;;;;;;5046449;28;20097;-82
2021/08/20 10:14:08;;;;;;;2.28;2.08;;;;;;;;;;5049494;28;20024;-82
2021/08/20 10:16:35;;;;;;;3.80;2.05;;;;;;;;;;5048191;28;20022;-83
2021/08/20 10:19:03;;;;;;;2.33;2.13;;;;;;;;;;5048648;28;20026;-83
2021/08/20 10:21:30;;;;;;;3.05;2.70;;;;;;;;;;5049501;28;20036;-83
2021/08/20 10:23:56;;;;;;;2.95;2.75;;;;;;;;;;5054902;28;20087;-82
2021/08/20 10:26:23;;;;;;;2.75;2.47;;;;;;;;;;5055646;28;20040;-83
2021/08/20 10:28:50;;;;;;;4.22;2.70;;;;;;;;;;5040328;28;20034;-83
2021/08/20 10:31:16;;;;;;;2.80;2.22;;;;;;;;;;5035874;28;20030;-83
2021/08/20 10:33:42;;;;;;;3.75;2.22;;;;;;;;;;5026767;28;20059;-83
2021/08/20 10:36:09;;;;;;;2.17;2.05;;;;;;;;;;5027575;28;20076;-80
2021/08/20 10:38:53;;;;;;;3.47;2.65;;;;;;;;;;5026079;28;20034;-82
2021/08/20 10:41:20;;;;;;;4.95;2.85;;;;;;;;;;5025444;28;20049;-81
2021/08/20 10:43:52;;;;;;;2.95;2.60;;;;;;;;;;5025564;28;20030;-83
2021/08/20 10:46:34;;;;;;;4.80;3.60;;;;;;;;;;5042992;28;20120;-82
2021/08/20 10:49:13;;;;;;;3.20;2.90;;;;;;;;;;5048365;28;20033;-82
2021/08/20 10:51:52;;;;;;;6.30;3.63;;;;;;;;;;5072833;22;20631;-82
2021/08/20 10:54:24;;;;;;;3.88;2.70;;;;;;;;;;5069981;28;20112;-84
2021/08/20 10:56:50;;;;;;;2.55;2.35;;;;;;;;;;5071378;28;20017;-84
2021/08/20 10:59:35;;;;;;;3.22;2.20;;;;;;;;;;5071647;28;20060;-84
2021/08/20 11:02:16;;;;;;;2.28;2.17;;;;;;;;;;5068133;28;20036;-84
2021/08/20 11:04:57;;;;;;;2.83;2.40;;;;;;;;;;5070492;28;20029;-83
2021/08/20 11:07:42;;;;;;;2.53;2.30;;;;;;;;;;5071006;28;20037;-83
2021/08/20 11:10:08;;;;;;;3.90;2.22;;;;;;;;;;5069376;28;20025;-85
2021/08/20 11:12:42;;;;;;;2.72;2.20;;;;;;;;;;5070360;28;20021;-83
2021/08/20 11:15:20;;;;;;;4.95;2.30;;;;;;;;;;5070689;28;20021;-82
2021/08/20 11:17:54;;;;;;;3.72;2.85;;;;;;;;;;5073438;28;20078;-83
2021/08/20 11:20:22;;;;;;;2.25;2.05;;;;;;;;;;5069823;28;20024;-83
2021/08/20 11:23:09;;;;;;;2.35;2.15;;;;;;;;;;5070302;28;20025;-84
2021/08/20 11:25:36;;;;;;;2.65;2.45;;;;;;;;;;5069057;28;20068;-83
2021/08/20 11:28:04;;;;;;;2.65;2.45;;;;;;;;;;5075506;28;20032;-83
2021/08/20 11:30:30;;;;;;;2.60;2.40;;;;;;;;;;5075459;28;20032;-82
2021/08/20 11:33:16;;;;;;;3.13;2.83;;;;;;;;;;5074077;28;20032;-82
2021/08/20 11:35:43;;;;;;;5.43;2.08;;;;;;;;;;5076140;28;20029;-84
2021/08/20 11:38:09;;;;;;;2.47;2.00;;;;;;;;;;5066511;28;20052;-83
2021/08/20 11:40:49;;;;;;;3.35;2.35;;;;;;;;;;5050341;28;20029;-83
2021/08/20 11:43:15;;;;;;;2.53;2.22;;;;;;;;;;5054329;28;20056;-83
2021/08/20 11:45:41;;;;;;;2.30;2.10;;;;;;;;;;5054158;28;20033;-83
2021/08/20 11:48:07;;;;;;;2.72;2.10;;;;;;;;;;5051756;28;20423;-83
2021/08/20 11:50:34;;;;;;;2.35;2.15;;;;;;;;;;5056305;28;20022;-82
2021/08/20 11:53:00;;;;;;;2.78;2.10;;;;;;;;;;5056225;28;20037;-82
2021/08/20 11:55:27;;;;;;;2.35;1.98;;;;;;;;;;5058127;28;20029;-80
2021/08/20 11:57:53;;;;;;;2.50;2.30;;;;;;;;;;5055964;28;20025;-82
2021/08/20 12:00:20;;;;;;;2.60;2.40;;;;;;;;;;5056158;28;20042;-82
2021/08/20 12:02:46;;;;;;;2.65;2.28;;;;;;;;;;5056908;28;20052;-83
2021/08/20 12:05:19;;;;;;;2.47;2.20;;;;;;;;;;5051832;28;20033;-83
2021/08/20 12:07:46;;;;;;;2.38;1.95;;;;;;;;;;5048184;28;20049;-83
2021/08/20 12:10:14;;;;;;;3.08;2.30;;;;;;;;;;5047774;28;20048;-84
2021/08/20 12:12:41;;;;;;;2.45;2.20;;;;;;;;;;5048923;28;20029;-82
2021/08/20 12:15:08;;;;;;;2.65;2.10;;;;;;;;;;5048154;28;20030;-83
2021/08/20 12:17:34;;;;;;;2.50;2.30;;;;;;;;;;5047301;28;20029;-83
2021/08/20 12:20:17;;;;;;;3.35;2.15;;;;;;;;;;5046381;28;20017;-83
2021/08/20 12:22:48;;;;;;;2.30;2.10;;;;;;;;;;5048666;28;20029;-84
2021/08/20 12:25:16;;;;;;;2.17;1.98;;;;;;;;;;5048511;28;20081;-83
2021/08/20 12:27:42;;;;;;;1.95;1.85;;;;;;;;;;5051697;28;20037;-82
2021/08/20 12:30:08;;;;;;;3.25;2.05;;;;;;;;;;5052733;28;20051;-84
2021/08/20 12:32:36;;;;;;;2.35;2.22;;;;;;;;;;5071150;28;20025;-84
2021/08/20 12:35:04;;;;;;;2.10;2.00;;;;;;;;;;5072083;28;20028;-83
2021/08/20 12:37:31;;;;;;;3.65;2.55;;;;;;;;;;5070757;28;20052;-82
2021/08/20 12:40:03;;;;;;;2.60;2.40;;;;;;;;;;5069100;28;20025;-84
2021/08/20 12:42:29;;;;;;;2.08;1.98;;;;;;;;;;5072495;28;20020;-83
2021/08/20 12:45:06;;;;;;;2.63;2.42;;;;;;;;;;5073927;28;20051;-84
2021/08/20 12:47:32;;;;;;;2.40;2.20;;;;;;;;;;5076312;28;20075;-82
2021/08/20 12:50:02;;;;;;;3.33;2.67;;;;;;;;;;5056058;28;20547;-83
2021/08/20 12:52:29;;;;;;;2.58;2.38;;;;;;;;;;5045278;28;20041;-83
2021/08/20 12:54:55;;;;;;;2.40;2.22;;;;;;;;;;5044868;28;20021;-83
2021/08/20 12:57:21;;;;;;;3.67;3.38;;;;;;;;;;5043471;28;20084;-83
2021/08/20 12:59:49;;;;;;;2.65;2.45;;;;;;;;;;5039534;28;20037;-83
2021/08/20 13:02:15;;;;;;;2.67;2.47;;;;;;;;;;5045368;28;20415;-83
2021/08/20 13:04:41;;;;;;;2.65;2.45;;;;;;;;;;5050313;28;20017;-83
2021/08/20 13:07:07;;;;;;;2.53;2.10;;;;;;;;;;5056551;28;20041;-84
2021/08/20 13:09:33;;;;;;;2.45;2.25;;;;;;;;;;5055337;28;20045;-82
2021/08/20 13:11:59;;;;;;;2.10;2.00;;;;;;;;;;5056149;28;20013;-83
2021/08/20 13:14:25;;;;;;;3.47;2.50;;;;;;;;;;5054914;28;20034;-84
2021/08/20 13:16:54;;;;;;;2.65;2.25;;;;;;;;;;5055182;28;20052;-83
2021/08/20 13:19:21;;;;;;;2.72;2.53;;;;;;;;;;5056112;28;20030;-83
2021/08/20 13:21:47;;;;;;;2.25;1.95;;;;;;;;;;5055415;28;20052;-83
2021/08/20 13:24:13;;;;;;;3.05;2.40;;;;;;;;;;5057715;28;20178;-82
2021/08/20 13:26:39;;;;;;;2.20;2.00;;;;;;;;;;5055852;28;20013;-83
2021/08/20 13:29:06;;;;;;;2.25;2.15;;;;;;;;;;5054973;28;20026;-82
2021/08/20 13:31:32;;;;;;;2.17;1.77;;;;;;;;;;5056253;28;20146;-82
2021/08/20 13:33:58;;;;;;;3.47;2.80;;;;;;;;;;5055189;28;20017;-83
2021/08/20 13:36:25;;;;;;;2.13;2.03;;;;;;;;;;5055525;28;20009;-83
2021/08/20 13:38:51;;;;;;;2.35;2.15;;;;;;;;;;5054826;28;20050;-83
2021/08/20 13:41:17;;;;;;;2.10;1.90;;;;;;;;;;5055983;28;20038;-82
2021/08/20 13:43:44;;;;;;;4.78;2.80;;;;;;;;;;5056353;28;20029;-83
2021/08/20 13:46:10;;;;;;;2.40;2.20;;;;;;;;;;5054941;28;20097;-82
2021/08/20 13:48:36;;;;;;;2.30;2.10;;;;;;;;;;5051865;28;20045;-84
2021/08/20 13:51:02;;;;;;;2.38;2.20;;;;;;;;;;5048836;28;20072;-83
2021/08/20 13:53:28;;;;;;;3.90;2.15;;;;;;;;;;5048819;28;20045;-83
2021/08/20 13:55:54;;;;;;;2.47;2.28;;;;;;;;;;5049295;28;20029;-83
2021/08/20 13:58:20;;;;;;;3.15;2.85;;;;;;;;;;5054512;28;20053;-82
2021/08/20 14:00:46;;;;;;;2.55;2.35;;;;;;;;;;5054097;28;20089;-83
2021/08/20 14:03:12;;;;;;;2.40;2.20;;;;;;;;;;5055234;28;20040;-83
2021/08/20 14:05:39;;;;;;;2.60;2.40;;;;;;;;;;5056671;28;20033;-83
2021/08/20 14:08:07;;;;;;;2.00;1.90;;;;;;;;;;5044955;28;20022;-83
2021/08/20 14:10:33;;;;;;;2.13;1.92;;;;;;;;;;5048537;28;20049;-83
2021/08/20 14:12:59;;;;;;;2.25;2.13;;;;;;;;;;5052663;28;20089;-84
2021/08/20 14:15:25;;;;;;;2.30;2.10;;;;;;;;;;5051791;28;20029;-83
2021/08/20 14:17:51;;;;;;;2.50;2.08;;;;;;;;;;5052681;28;20049;-84
2021/08/20 14:20:18;;;;;;;2.28;2.10;;;;;;;;;;5051442;28;20030;-84
2021/08/20 14:22:47;;;;;;;2.55;2.33;;;;;;;;;;5050436;28;20025;-83
2021/08/20 14:25:13;;;;;;;2.38;2.15;;;;;;;;;;5050006;28;20049;-84
2021/08/20 14:27:39;;;;;;;2.30;2.10;;;;;;;;;;5051597;28;20036;-83
2021/08/20 14:30:05;;;;;;;2.08;1.98;;;;;;;;;;5051716;28;20025;-84
2021/08/20 14:32:32;;;;;;;2.63;2.38;;;;;;;;;;5051621;28;20044;-83
2021/08/20 14:34:58;;;;;;;3.17;2.88;;;;;;;;;;5050444;28;20041;-84
2021/08/20 14:37:24;;;;;;;4.55;2.90;;;;;;;;;;5054086;28;20083;-84
2021/08/20 14:39:50;;;;;;;2.60;2.40;;;;;;;;;;5050106;28;20029;-84
2021/08/20 14:42:16;;;;;;;2.60;2.40;;;;;;;;;;5051833;28;20041;-84
2021/08/20 14:44:42;;;;;;;2.17;2.03;;;;;;;;;;5052387;28;20022;-84